sensor_id;sensor_type;location;lat;lon;timestamp;pressure;altitude;pressure_sealevel;temperature;humidity
78411;BME280;67706;51.074;-1.796;2023-02-21T00:00:51;101763.69;;;9.36;83.15
78411;BME280;67706;51.074;-1.796;2023-02-21T00:03:35;101774.13;;;9.41;82.58
78411;BME280;67706;51.074;-1.796;2023-02-21T00:06:19;101782.16;;;9.34;83.14
78411;BME280;67706;51.074;-1.796;2023-02-21T00:09:04;101781.31;;;9.34;83.36
78411;BME280;67706;51.074;-1.796;2023-02-21T00:11:49;101776.84;;;9.33;83.26
78411;BME280;67706;51.074;-1.796;2023-02-21T00:14:33;101765.72;;;9.34;83.26
78411;BME280;67706;51.074;-1.796;2023-02-21T00:17:19;101781.16;;;9.35;83.05
78411;BME280;67706;51.074;-1.796;2023-02-21T00:20:03;101770.50;;;9.24;83.41
78411;BME280;67706;51.074;-1.796;2023-02-21T00:22:47;101777.03;;;9.31;83.48
78411;BME280;67706;51.074;-1.796;2023-02-21T00:25:32;101767.28;;;9.37;83.23
78411;BME280;67706;51.074;-1.796;2023-02-21T00:28:17;101775.31;;;9.30;83.62
78411;BME280;67706;51.074;-1.796;2023-02-21T00:31:01;101779.97;;;9.46;82.71
78411;BME280;67706;51.074;-1.796;2023-02-21T00:33:45;101775.84;;;9.34;83.32
78411;BME280;67706;51.074;-1.796;2023-02-21T00:36:29;101764.03;;;9.33;83.41
78411;BME280;67706;51.074;-1.796;2023-02-21T00:39:13;101769.81;;;9.30;83.81
78411;BME280;67706;51.074;-1.796;2023-02-21T00:41:59;101757.84;;;9.23;83.91
78411;BME280;67706;51.074;-1.796;2023-02-21T00:44:43;101760.56;;;9.15;84.42
78411;BME280;67706;51.074;-1.796;2023-02-21T00:47:27;101748.28;;;9.27;84.04
78411;BME280;67706;51.074;-1.796;2023-02-21T00:50:12;101744.84;;;9.25;84.09
78411;BME280;67706;51.074;-1.796;2023-02-21T00:52:56;101746.91;;;9.31;83.87
78411;BME280;67706;51.074;-1.796;2023-02-21T00:55:40;101739.00;;;9.20;84.38
78411;BME280;67706;51.074;-1.796;2023-02-21T00:58:26;101738.31;;;9.18;84.49
78411;BME280;67706;51.074;-1.796;2023-02-21T01:01:10;101736.63;;;9.17;84.52
78411;BME280;67706;51.074;-1.796;2023-02-21T01:03:56;101729.44;;;9.24;84.25
78411;BME280;67706;51.074;-1.796;2023-02-21T01:06:40;101728.75;;;9.22;84.42
78411;BME280;67706;51.074;-1.796;2023-02-21T01:09:24;101725.81;;;9.16;84.63
78411;BME280;67706;51.074;-1.796;2023-02-21T01:12:08;101715.03;;;9.14;84.62
78411;BME280;67706;51.074;-1.796;2023-02-21T01:14:53;101711.63;;;9.20;84.51
78411;BME280;67706;51.074;-1.796;2023-02-21T01:17:37;101703.25;;;9.22;84.50
78411;BME280;67706;51.074;-1.796;2023-02-21T01:20:21;101693.81;;;9.08;84.93
78411;BME280;67706;51.074;-1.796;2023-02-21T01:23:05;101701.84;;;9.10;85.03
78411;BME280;67706;51.074;-1.796;2023-02-21T01:25:49;101698.63;;;9.14;84.83
78411;BME280;67706;51.074;-1.796;2023-02-21T01:28:35;101692.28;;;9.14;84.79
78411;BME280;67706;51.074;-1.796;2023-02-21T01:31:20;101688.53;;;9.15;84.65
78411;BME280;67706;51.074;-1.796;2023-02-21T01:34:05;101689.22;;;9.09;84.58
78411;BME280;67706;51.074;-1.796;2023-02-21T01:36:50;101681.34;;;9.22;84.41
78411;BME280;67706;51.074;-1.796;2023-02-21T01:39:34;101672.44;;;9.12;84.46
78411;BME280;67706;51.074;-1.796;2023-02-21T01:42:18;101669.88;;;9.10;84.96
78411;BME280;67706;51.074;-1.796;2023-02-21T01:45:43;101671.56;;;9.03;84.87
78411;BME280;67706;51.074;-1.796;2023-02-21T01:48:31;101665.25;;;9.03;85.02
78411;BME280;67706;51.074;-1.796;2023-02-21T01:51:19;101665.75;;;9.06;84.94
78411;BME280;67706;51.074;-1.796;2023-02-21T01:54:05;101657.88;;;9.11;84.64
78411;BME280;67706;51.074;-1.796;2023-02-21T01:56:50;101658.56;;;9.13;84.54
78411;BME280;67706;51.074;-1.796;2023-02-21T01:59:35;101657.06;;;9.19;84.46
78411;BME280;67706;51.074;-1.796;2023-02-21T02:02:24;101659.09;;;9.17;84.01
78411;BME280;67706;51.074;-1.796;2023-02-21T02:05:11;101665.44;;;9.17;84.57
78411;BME280;67706;51.074;-1.796;2023-02-21T02:07:56;101658.06;;;9.10;84.56
78411;BME280;67706;51.074;-1.796;2023-02-21T02:10:41;101654.81;;;9.14;84.61
78411;BME280;67706;51.074;-1.796;2023-02-21T02:13:39;101649.84;;;9.26;83.54
78411;BME280;67706;51.074;-1.796;2023-02-21T02:16:18;101652.78;;;9.24;83.72
78411;BME280;67706;51.074;-1.796;2023-02-21T02:19:04;101649.16;;;9.24;83.15
78411;BME280;67706;51.074;-1.796;2023-02-21T02:24:57;101640.13;;;9.15;83.38
78411;BME280;67706;51.074;-1.796;2023-02-21T02:27:40;101647.66;;;9.21;83.02
78411;BME280;67706;51.074;-1.796;2023-02-21T02:36:13;101642.16;;;9.13;83.66
78411;BME280;67706;51.074;-1.796;2023-02-21T02:38:49;101626.06;;;9.18;83.13
78411;BME280;67706;51.074;-1.796;2023-02-21T02:41:23;101633.09;;;9.21;82.72
78411;BME280;67706;51.074;-1.796;2023-02-21T02:43:57;101627.44;;;9.14;83.16
78411;BME280;67706;51.074;-1.796;2023-02-21T02:46:28;101624.53;;;9.16;83.36
78411;BME280;67706;51.074;-1.796;2023-02-21T02:48:59;101627.63;;;9.21;83.42
78411;BME280;67706;51.074;-1.796;2023-02-21T02:51:31;101625.91;;;9.20;82.99
78411;BME280;67706;51.074;-1.796;2023-02-21T02:53:59;101621.78;;;9.08;83.86
78411;BME280;67706;51.074;-1.796;2023-02-21T02:56:26;101617.34;;;9.07;83.73
78411;BME280;67706;51.074;-1.796;2023-02-21T02:58:57;101612.41;;;9.10;84.01
78411;BME280;67706;51.074;-1.796;2023-02-21T03:01:43;101615.13;;;9.10;83.90
78411;BME280;67706;51.074;-1.796;2023-02-21T03:04:29;101614.25;;;9.02;83.85
78411;BME280;67706;51.074;-1.796;2023-02-21T03:07:02;101607.41;;;9.06;83.73
78411;BME280;67706;51.074;-1.796;2023-02-21T03:09:37;101608.28;;;9.06;83.78
78411;BME280;67706;51.074;-1.796;2023-02-21T03:12:14;101609.66;;;9.18;83.43
78411;BME280;67706;51.074;-1.796;2023-02-21T03:14:49;101608.97;;;9.16;83.08
78411;BME280;67706;51.074;-1.796;2023-02-21T03:17:16;101598.72;;;9.10;83.10
78411;BME280;67706;51.074;-1.796;2023-02-21T03:19:46;101598.72;;;9.02;83.53
78411;BME280;67706;51.074;-1.796;2023-02-21T03:22:18;101595.09;;;9.02;83.74
78411;BME280;67706;51.074;-1.796;2023-02-21T03:24:48;101592.53;;;9.00;83.47
78411;BME280;67706;51.074;-1.796;2023-02-21T03:27:16;101585.16;;;9.01;83.66
78411;BME280;67706;51.074;-1.796;2023-02-21T03:29:43;101580.56;;;9.01;83.48
78411;BME280;67706;51.074;-1.796;2023-02-21T03:32:13;101574.22;;;9.01;84.00
78411;BME280;67706;51.074;-1.796;2023-02-21T03:34:41;101567.91;;;9.00;83.69
78411;BME280;67706;51.074;-1.796;2023-02-21T03:37:10;101567.91;;;9.08;83.33
78411;BME280;67706;51.074;-1.796;2023-02-21T03:39:45;101567.91;;;9.08;83.30
78411;BME280;67706;51.074;-1.796;2023-02-21T03:42:12;101565.19;;;9.00;83.82
78411;BME280;67706;51.074;-1.796;2023-02-21T03:44:38;101560.38;;;8.94;84.18
78411;BME280;67706;51.074;-1.796;2023-02-21T03:47:05;101566.88;;;9.01;83.56
78411;BME280;67706;51.074;-1.796;2023-02-21T03:49:32;101564.69;;;9.05;83.68
78411;BME280;67706;51.074;-1.796;2023-02-21T03:51:58;101564.13;;;9.01;83.56
78411;BME280;67706;51.074;-1.796;2023-02-21T03:54:25;101564.81;;;9.03;83.52
78411;BME280;67706;51.074;-1.796;2023-02-21T03:56:54;101563.81;;;8.96;83.85
78411;BME280;67706;51.074;-1.796;2023-02-21T03:59:20;101560.38;;;9.02;83.88
78411;BME280;67706;51.074;-1.796;2023-02-21T04:01:47;101569.28;;;8.96;83.57
78411;BME280;67706;51.074;-1.796;2023-02-21T04:04:14;101564.50;;;8.90;83.81
78411;BME280;67706;51.074;-1.796;2023-02-21T04:06:40;101566.19;;;8.91;83.91
78411;BME280;67706;51.074;-1.796;2023-02-21T04:09:07;101562.75;;;8.89;84.02
78411;BME280;67706;51.074;-1.796;2023-02-21T04:11:34;101553.56;;;8.90;83.94
78411;BME280;67706;51.074;-1.796;2023-02-21T04:14:02;101554.56;;;8.89;84.32
78411;BME280;67706;51.074;-1.796;2023-02-21T04:16:30;101561.03;;;8.88;84.61
78411;BME280;67706;51.074;-1.796;2023-02-21T04:18:56;101551.13;;;8.95;84.02
78411;BME280;67706;51.074;-1.796;2023-02-21T04:21:23;101543.63;;;8.89;84.86
78411;BME280;67706;51.074;-1.796;2023-02-21T04:23:50;101543.44;;;8.82;85.04
78411;BME280;67706;51.074;-1.796;2023-02-21T04:26:16;101535.91;;;8.93;85.15
78411;BME280;67706;51.074;-1.796;2023-02-21T04:28:43;101533.34;;;8.91;84.90
78411;BME280;67706;51.074;-1.796;2023-02-21T04:31:13;101529.75;;;8.82;85.24
78411;BME280;67706;51.074;-1.796;2023-02-21T04:33:40;101531.63;;;8.82;85.05
78411;BME280;67706;51.074;-1.796;2023-02-21T04:36:07;101532.50;;;8.82;85.25
78411;BME280;67706;51.074;-1.796;2023-02-21T04:38:33;101523.09;;;8.85;84.79
78411;BME280;67706;51.074;-1.796;2023-02-21T04:41:02;101523.41;;;8.82;84.88
78411;BME280;67706;51.074;-1.796;2023-02-21T04:43:28;101519.50;;;8.85;85.01
78411;BME280;67706;51.074;-1.796;2023-02-21T04:45:55;101526.00;;;8.84;85.13
78411;BME280;67706;51.074;-1.796;2023-02-21T04:48:23;101523.09;;;8.85;85.19
78411;BME280;67706;51.074;-1.796;2023-02-21T04:50:50;101520.72;;;8.90;84.75
78411;BME280;67706;51.074;-1.796;2023-02-21T04:53:17;101518.81;;;8.82;84.54
78411;BME280;67706;51.074;-1.796;2023-02-21T04:55:44;101516.25;;;8.81;84.17
78411;BME280;67706;51.074;-1.796;2023-02-21T04:58:10;101515.22;;;8.74;84.40
78411;BME280;67706;51.074;-1.796;2023-02-21T05:00:37;101506.69;;;8.69;84.41
78411;BME280;67706;51.074;-1.796;2023-02-21T05:03:06;101511.47;;;8.67;84.77
78411;BME280;67706;51.074;-1.796;2023-02-21T05:05:34;101507.50;;;8.69;84.88
78411;BME280;67706;51.074;-1.796;2023-02-21T05:08:01;101504.09;;;8.67;85.14
78411;BME280;67706;51.074;-1.796;2023-02-21T05:10:27;101503.59;;;8.72;85.13
78411;BME280;67706;51.074;-1.796;2023-02-21T05:12:54;101505.31;;;8.65;84.83
78411;BME280;67706;51.074;-1.796;2023-02-21T05:15:21;101509.22;;;8.62;85.18
78411;BME280;67706;51.074;-1.796;2023-02-21T05:17:48;101503.59;;;8.72;84.83
78411;BME280;67706;51.074;-1.796;2023-02-21T05:20:14;101504.94;;;8.76;84.52
78411;BME280;67706;51.074;-1.796;2023-02-21T05:22:42;101499.47;;;8.68;84.75
78411;BME280;67706;51.074;-1.796;2023-02-21T05:25:13;101502.22;;;8.68;84.71
78411;BME280;67706;51.074;-1.796;2023-02-21T05:27:41;101504.09;;;8.67;84.91
78411;BME280;67706;51.074;-1.796;2023-02-21T05:30:09;101504.94;;;8.68;84.97
78411;BME280;67706;51.074;-1.796;2023-02-21T05:32:36;101493.84;;;8.61;85.24
78411;BME280;67706;51.074;-1.796;2023-02-21T05:35:03;101495.88;;;8.75;85.08
78411;BME280;67706;51.074;-1.796;2023-02-21T05:37:30;101504.28;;;8.74;84.71
78411;BME280;67706;51.074;-1.796;2023-02-21T05:39:59;101503.25;;;8.67;84.80
78411;BME280;67706;51.074;-1.796;2023-02-21T05:42:25;101500.66;;;8.65;84.97
78411;BME280;67706;51.074;-1.796;2023-02-21T05:44:52;101502.22;;;8.60;85.51
78411;BME280;67706;51.074;-1.796;2023-02-21T05:47:19;101499.97;;;8.63;85.12
78411;BME280;67706;51.074;-1.796;2023-02-21T05:49:46;101505.31;;;8.65;85.44
78411;BME280;67706;51.074;-1.796;2023-02-21T05:52:14;101491.97;;;8.70;85.31
78411;BME280;67706;51.074;-1.796;2023-02-21T05:54:42;101497.78;;;8.67;85.01
78411;BME280;67706;51.074;-1.796;2023-02-21T05:57:10;101499.81;;;8.57;85.52
78411;BME280;67706;51.074;-1.796;2023-02-21T05:59:37;101489.91;;;8.56;85.56
78411;BME280;67706;51.074;-1.796;2023-02-21T06:02:04;101493.13;;;8.51;85.91
78411;BME280;67706;51.074;-1.796;2023-02-21T06:04:30;101492.28;;;8.51;85.96
78411;BME280;67706;51.074;-1.796;2023-02-21T06:06:57;101493.31;;;8.50;86.26
78411;BME280;67706;51.074;-1.796;2023-02-21T06:09:24;101492.63;;;8.56;85.90
78411;BME280;67706;51.074;-1.796;2023-02-21T06:11:54;101489.03;;;8.63;85.01
78411;BME280;67706;51.074;-1.796;2023-02-21T06:14:23;101488.19;;;8.55;85.45
78411;BME280;67706;51.074;-1.796;2023-02-21T06:16:51;101484.25;;;8.57;85.57
78411;BME280;67706;51.074;-1.796;2023-02-21T06:19:18;101487.16;;;8.56;85.46
78411;BME280;67706;51.074;-1.796;2023-02-21T06:21:45;101482.72;;;8.55;85.64
78411;BME280;67706;51.074;-1.796;2023-02-21T06:24:13;101478.59;;;8.51;85.57
78411;BME280;67706;51.074;-1.796;2023-02-21T06:26:40;101479.66;;;8.58;85.27
78411;BME280;67706;51.074;-1.796;2023-02-21T06:29:07;101477.97;;;8.73;84.75
78411;BME280;67706;51.074;-1.796;2023-02-21T06:31:35;101484.06;;;8.59;85.03
78411;BME280;67706;51.074;-1.796;2023-02-21T06:34:02;101483.94;;;8.60;84.75
78411;BME280;67706;51.074;-1.796;2023-02-21T06:36:29;101480.84;;;8.47;84.87
78411;BME280;67706;51.074;-1.796;2023-02-21T06:38:56;101488.34;;;8.45;84.73
78411;BME280;67706;51.074;-1.796;2023-02-21T06:41:25;101481.34;;;8.43;85.15
78411;BME280;67706;51.074;-1.796;2023-02-21T06:43:53;101484.56;;;8.46;84.35
78411;BME280;67706;51.074;-1.796;2023-02-21T06:46:22;101479.28;;;8.45;84.04
78411;BME280;67706;51.074;-1.796;2023-02-21T06:48:50;101480.66;;;8.41;84.19
78411;BME280;67706;51.074;-1.796;2023-02-21T06:51:17;101470.41;;;8.43;83.84
78411;BME280;67706;51.074;-1.796;2023-02-21T06:53:48;101479.28;;;8.37;84.21
78411;BME280;67706;51.074;-1.796;2023-02-21T06:56:15;101466.97;;;8.33;84.77
78411;BME280;67706;51.074;-1.796;2023-02-21T06:58:41;101465.59;;;8.37;84.97
78411;BME280;67706;51.074;-1.796;2023-02-21T07:01:08;101472.09;;;8.36;84.64
78411;BME280;67706;51.074;-1.796;2023-02-21T07:03:38;101459.13;;;8.38;84.73
78411;BME280;67706;51.074;-1.796;2023-02-21T07:06:06;101471.09;;;8.45;84.46
78411;BME280;67706;51.074;-1.796;2023-02-21T07:08:33;101466.97;;;8.33;84.79
78411;BME280;67706;51.074;-1.796;2023-02-21T07:10:59;101464.25;;;8.41;84.62
78411;BME280;67706;51.074;-1.796;2023-02-21T07:13:26;101464.06;;;8.34;84.67
78411;BME280;67706;51.074;-1.796;2023-02-21T07:15:53;101461.81;;;8.30;84.79
78411;BME280;67706;51.074;-1.796;2023-02-21T07:18:20;101459.78;;;8.32;84.88
78411;BME280;67706;51.074;-1.796;2023-02-21T07:20:46;101467.47;;;8.44;84.60
78411;BME280;67706;51.074;-1.796;2023-02-21T07:23:15;101461.00;;;8.45;84.90
78411;BME280;67706;51.074;-1.796;2023-02-21T07:25:42;101460.16;;;8.53;84.63
78411;BME280;67706;51.074;-1.796;2023-02-21T07:28:09;101459.13;;;8.54;84.22
78411;BME280;67706;51.074;-1.796;2023-02-21T07:30:36;101464.78;;;8.60;84.08
78411;BME280;67706;51.074;-1.796;2023-02-21T07:33:02;101461.00;;;8.53;83.94
78411;BME280;67706;51.074;-1.796;2023-02-21T07:35:29;101459.66;;;8.49;84.16
78411;BME280;67706;51.074;-1.796;2023-02-21T07:37:56;101465.47;;;8.54;84.19
78411;BME280;67706;51.074;-1.796;2023-02-21T07:40:24;101464.94;;;8.59;83.71
78411;BME280;67706;51.074;-1.796;2023-02-21T07:42:51;101464.94;;;8.59;83.53
78411;BME280;67706;51.074;-1.796;2023-02-21T07:45:17;101464.78;;;8.60;83.39
78411;BME280;67706;51.074;-1.796;2023-02-21T07:47:44;101464.78;;;8.60;83.54
78411;BME280;67706;51.074;-1.796;2023-02-21T07:50:11;101468.72;;;8.66;83.28
78411;BME280;67706;51.074;-1.796;2023-02-21T07:52:38;101469.03;;;8.63;83.19
78411;BME280;67706;51.074;-1.796;2023-02-21T07:55:05;101468.72;;;8.66;82.77
78411;BME280;67706;51.074;-1.796;2023-02-21T07:57:33;101478.97;;;8.64;82.86
78411;BME280;67706;51.074;-1.796;2023-02-21T08:00:00;101463.94;;;8.68;81.86
78411;BME280;67706;51.074;-1.796;2023-02-21T08:02:26;101463.94;;;8.68;81.16
78411;BME280;67706;51.074;-1.796;2023-02-21T08:04:53;101470.94;;;8.54;82.33
78411;BME280;67706;51.074;-1.796;2023-02-21T08:07:20;101474.38;;;8.64;82.45
78411;BME280;67706;51.074;-1.796;2023-02-21T08:09:46;101465.81;;;8.67;82.01
78411;BME280;67706;51.074;-1.796;2023-02-21T08:12:14;101477.97;;;8.65;82.70
78411;BME280;67706;51.074;-1.796;2023-02-21T08:14:42;101485.81;;;8.68;82.48
78411;BME280;67706;51.074;-1.796;2023-02-21T08:17:09;101492.66;;;8.64;82.95
78411;BME280;67706;51.074;-1.796;2023-02-21T08:19:38;101482.38;;;8.58;82.66
78411;BME280;67706;51.074;-1.796;2023-02-21T08:22:05;101486.66;;;8.60;82.35
78411;BME280;67706;51.074;-1.796;2023-02-21T08:24:31;101492.81;;;8.54;83.27
78411;BME280;67706;51.074;-1.796;2023-02-21T08:26:59;101484.63;;;8.62;83.42
78411;BME280;67706;51.074;-1.796;2023-02-21T08:29:25;101486.66;;;8.60;83.13
78411;BME280;67706;51.074;-1.796;2023-02-21T08:31:54;101483.41;;;8.57;83.47
78411;BME280;67706;51.074;-1.796;2023-02-21T08:34:21;101484.25;;;8.57;83.25
78411;BME280;67706;51.074;-1.796;2023-02-21T08:36:49;101489.03;;;8.55;83.85
78411;BME280;67706;51.074;-1.796;2023-02-21T08:39:15;101486.31;;;8.55;83.92
78411;BME280;67706;51.074;-1.796;2023-02-21T08:41:44;101479.28;;;8.53;83.71
78411;BME280;67706;51.074;-1.796;2023-02-21T08:44:15;101469.91;;;8.63;82.79
78411;BME280;67706;51.074;-1.796;2023-02-21T08:46:42;101482.03;;;8.45;83.58
78411;BME280;67706;51.074;-1.796;2023-02-21T08:49:11;101477.06;;;8.48;84.07
78411;BME280;67706;51.074;-1.796;2023-02-21T08:51:38;101482.72;;;8.55;84.08
78411;BME280;67706;51.074;-1.796;2023-02-21T08:54:05;101487.34;;;8.54;83.26
78411;BME280;67706;51.074;-1.796;2023-02-21T08:56:33;101483.06;;;8.52;83.25
78411;BME280;67706;51.074;-1.796;2023-02-21T08:58:59;101482.19;;;8.43;83.40
78411;BME280;67706;51.074;-1.796;2023-02-21T09:01:30;101488.19;;;8.55;83.18
78411;BME280;67706;51.074;-1.796;2023-02-21T09:03:58;101480.66;;;8.57;83.23
78411;BME280;67706;51.074;-1.796;2023-02-21T09:06:26;101481.53;;;8.49;83.70
78411;BME280;67706;51.074;-1.796;2023-02-21T09:08:53;101475.00;;;8.42;83.98
78411;BME280;67706;51.074;-1.796;2023-02-21T09:11:20;101471.44;;;8.58;83.54
78411;BME280;67706;51.074;-1.796;2023-02-21T09:13:47;101478.59;;;8.51;83.32
78411;BME280;67706;51.074;-1.796;2023-02-21T09:16:13;101472.63;;;8.55;82.90
78411;BME280;67706;51.074;-1.796;2023-02-21T09:18:40;101475.03;;;8.58;82.84
78411;BME280;67706;51.074;-1.796;2023-02-21T09:21:07;101474.34;;;8.56;83.02
78411;BME280;67706;51.074;-1.796;2023-02-21T09:23:35;101469.03;;;8.55;82.13
78411;BME280;67706;51.074;-1.796;2023-02-21T09:26:02;101472.13;;;8.52;83.71
78411;BME280;67706;51.074;-1.796;2023-02-21T09:28:28;101469.03;;;8.47;82.78
78411;BME280;67706;51.074;-1.796;2023-02-21T09:30:55;101470.59;;;8.57;82.80
78411;BME280;67706;51.074;-1.796;2023-02-21T09:33:22;101465.78;;;8.51;82.33
78411;BME280;67706;51.074;-1.796;2023-02-21T09:35:49;101467.34;;;8.54;82.74
78411;BME280;67706;51.074;-1.796;2023-02-21T09:38:16;101460.50;;;8.58;82.54
78411;BME280;67706;51.074;-1.796;2023-02-21T09:40:47;101457.09;;;8.56;82.23
78411;BME280;67706;51.074;-1.796;2023-02-21T09:43:18;101455.38;;;8.55;83.38
78411;BME280;67706;51.074;-1.796;2023-02-21T09:45:46;101448.38;;;8.60;83.15
78411;BME280;67706;51.074;-1.796;2023-02-21T09:48:17;101459.81;;;8.56;82.72
78411;BME280;67706;51.074;-1.796;2023-02-21T09:50:47;101448.53;;;8.51;82.51
78411;BME280;67706;51.074;-1.796;2023-02-21T09:53:18;101452.63;;;8.47;82.53
78411;BME280;67706;51.074;-1.796;2023-02-21T09:55:47;101451.94;;;8.53;82.13
78411;BME280;67706;51.074;-1.796;2023-02-21T09:58:17;101455.38;;;8.63;82.32
78411;BME280;67706;51.074;-1.796;2023-02-21T10:00:45;101452.31;;;8.50;83.19
78411;BME280;67706;51.074;-1.796;2023-02-21T10:03:29;101441.69;;;8.55;82.27
78411;BME280;67706;51.074;-1.796;2023-02-21T10:06:05;101444.78;;;8.60;81.91
78411;BME280;67706;51.074;-1.796;2023-02-21T10:08:41;101444.78;;;8.60;81.46
78411;BME280;67706;51.074;-1.796;2023-02-21T10:11:24;101437.94;;;8.64;81.19
78411;BME280;67706;51.074;-1.796;2023-02-21T10:14:02;101437.63;;;8.67;81.05
78411;BME280;67706;51.074;-1.796;2023-02-21T10:16:34;101433.16;;;8.74;80.83
78411;BME280;67706;51.074;-1.796;2023-02-21T10:19:06;101428.88;;;8.71;80.43
78411;BME280;67706;51.074;-1.796;2023-02-21T10:21:39;101425.28;;;8.79;80.51
78411;BME280;67706;51.074;-1.796;2023-02-21T10:24:12;101430.91;;;8.94;80.44
78411;BME280;67706;51.074;-1.796;2023-02-21T10:26:45;101428.66;;;9.05;80.45
78411;BME280;67706;51.074;-1.796;2023-02-21T10:29:20;101430.00;;;9.25;78.38
78411;BME280;67706;51.074;-1.796;2023-02-21T10:31:51;101423.84;;;9.23;78.84
78411;BME280;67706;51.074;-1.796;2023-02-21T10:34:23;101426.63;;;9.15;78.49
78411;BME280;67706;51.074;-1.796;2023-02-21T10:36:51;101422.34;;;8.97;79.65
78411;BME280;67706;51.074;-1.796;2023-02-21T10:39:21;101423.72;;;9.09;79.52
78411;BME280;67706;51.074;-1.796;2023-02-21T10:41:53;101418.75;;;9.12;80.51
78411;BME280;67706;51.074;-1.796;2023-02-21T10:44:25;101425.06;;;9.21;79.72
78411;BME280;67706;51.074;-1.796;2023-02-21T10:46:57;101417.16;;;9.26;79.59
78411;BME280;67706;51.074;-1.796;2023-02-21T10:49:30;101420.75;;;9.26;79.81
78411;BME280;67706;51.074;-1.796;2023-02-21T10:52:04;101416.47;;;9.32;79.24
78411;BME280;67706;51.074;-1.796;2023-02-21T10:54:31;101415.94;;;9.44;78.89
78411;BME280;67706;51.074;-1.796;2023-02-21T10:56:59;101413.19;;;9.36;79.29
78411;BME280;67706;51.074;-1.796;2023-02-21T10:59:30;101412.19;;;9.37;79.67
78411;BME280;67706;51.074;-1.796;2023-02-21T11:01:58;101397.16;;;9.25;80.30
78411;BME280;67706;51.074;-1.796;2023-02-21T11:04:29;101406.03;;;9.35;80.48
78411;BME280;67706;51.074;-1.796;2023-02-21T11:07:01;101397.25;;;9.48;79.84
78411;BME280;67706;51.074;-1.796;2023-02-21T11:09:34;101404.16;;;9.36;80.59
78411;BME280;67706;51.074;-1.796;2023-02-21T11:12:06;101396.66;;;9.30;80.23
78411;BME280;67706;51.074;-1.796;2023-02-21T11:14:43;101406.03;;;9.35;79.94
78411;BME280;67706;51.074;-1.796;2023-02-21T11:17:14;101397.31;;;9.24;79.57
78411;BME280;67706;51.074;-1.796;2023-02-21T11:19:46;101394.91;;;9.29;80.27
78411;BME280;67706;51.074;-1.796;2023-02-21T11:22:14;101397.13;;;9.33;79.60
78411;BME280;67706;51.074;-1.796;2023-02-21T11:24:54;101402.09;;;9.38;79.17
78411;BME280;67706;51.074;-1.796;2023-02-21T11:27:25;101400.34;;;9.37;79.25
78411;BME280;67706;51.074;-1.796;2023-02-21T11:29:53;101396.75;;;9.36;79.29
78411;BME280;67706;51.074;-1.796;2023-02-21T11:32:29;101391.16;;;9.30;79.15
78411;BME280;67706;51.074;-1.796;2023-02-21T11:35:06;101392.66;;;9.32;79.12
78411;BME280;67706;51.074;-1.796;2023-02-21T11:37:49;101391.44;;;9.43;78.46
78411;BME280;67706;51.074;-1.796;2023-02-21T11:40:33;101388.53;;;9.44;78.34
78411;BME280;67706;51.074;-1.796;2023-02-21T11:43:17;101384.47;;;9.40;77.86
78411;BME280;67706;51.074;-1.796;2023-02-21T11:45:59;101381.34;;;9.43;78.49
78411;BME280;67706;51.074;-1.796;2023-02-21T11:48:29;101380.28;;;9.52;77.83
78411;BME280;67706;51.074;-1.796;2023-02-21T11:50:59;101379.56;;;9.58;78.05
78411;BME280;67706;51.074;-1.796;2023-02-21T11:53:32;101376.44;;;9.70;77.31
78411;BME280;67706;51.074;-1.796;2023-02-21T11:56:13;101375.78;;;9.59;77.15
78411;BME280;67706;51.074;-1.796;2023-02-21T11:58:53;101368.91;;;9.63;77.31
78411;BME280;67706;51.074;-1.796;2023-02-21T12:01:26;101363.47;;;9.55;77.73
78411;BME280;67706;51.074;-1.796;2023-02-21T12:04:06;101365.16;;;9.65;77.55
78411;BME280;67706;51.074;-1.796;2023-02-21T12:06:39;101352.47;;;9.63;77.30
78411;BME280;67706;51.074;-1.796;2023-02-21T12:09:11;101354.16;;;9.73;76.57
78411;BME280;67706;51.074;-1.796;2023-02-21T12:11:51;101356.41;;;9.69;76.20
78411;BME280;67706;51.074;-1.796;2023-02-21T12:20:31;101339.16;;;9.60;75.70
78411;BME280;67706;51.074;-1.796;2023-02-21T12:23:12;101334.53;;;9.61;75.20
78411;BME280;67706;51.074;-1.796;2023-02-21T12:25:54;101333.72;;;9.52;76.02
78411;BME280;67706;51.074;-1.796;2023-02-21T12:28:36;101326.53;;;9.51;75.95
78411;BME280;67706;51.074;-1.796;2023-02-21T12:31:15;101325.06;;;9.72;75.50
78411;BME280;67706;51.074;-1.796;2023-02-21T12:33:51;101324.69;;;9.75;74.72
78411;BME280;67706;51.074;-1.796;2023-02-21T12:36:48;101323.38;;;9.93;74.42
78411;BME280;67706;51.074;-1.796;2023-02-21T12:39:29;101320.81;;;9.92;73.96
78411;BME280;67706;51.074;-1.796;2023-02-21T12:42:22;101320.88;;;9.84;73.49
78411;BME280;67706;51.074;-1.796;2023-02-21T12:45:03;101313.47;;;9.61;73.57
78411;BME280;67706;51.074;-1.796;2023-02-21T12:47:35;101319.94;;;9.69;73.30
78411;BME280;67706;51.074;-1.796;2023-02-21T12:50:12;101308.63;;;9.72;74.07
78411;BME280;67706;51.074;-1.796;2023-02-21T12:52:47;101302.41;;;9.78;73.17
78411;BME280;67706;51.074;-1.796;2023-02-21T12:55:20;101305.34;;;9.99;72.75
78411;BME280;67706;51.074;-1.796;2023-02-21T12:57:51;101310.38;;;10.10;72.36
78411;BME280;67706;51.074;-1.796;2023-02-21T13:00:22;101301.50;;;10.08;72.48
78411;BME280;67706;51.074;-1.796;2023-02-21T13:02:58;101303.63;;;9.98;73.06
78411;BME280;67706;51.074;-1.796;2023-02-21T13:05:35;101282.69;;;10.05;71.97
78411;BME280;67706;51.074;-1.796;2023-02-21T13:08:06;101279.28;;;10.03;72.97
78411;BME280;67706;51.074;-1.796;2023-02-21T13:10:45;101275.75;;;10.17;73.04
78411;BME280;67706;51.074;-1.796;2023-02-21T13:13:17;101275.13;;;10.29;70.70
78411;BME280;67706;51.074;-1.796;2023-02-21T13:15:47;101263.63;;;10.34;70.41
78411;BME280;67706;51.074;-1.796;2023-02-21T13:18:19;101265.59;;;10.40;70.83
78411;BME280;67706;51.074;-1.796;2023-02-21T13:20:52;101257.28;;;10.33;71.15
78411;BME280;67706;51.074;-1.796;2023-02-21T13:26:42;101255.59;;;10.32;70.53
78411;BME280;67706;51.074;-1.796;2023-02-21T13:29:17;101248.41;;;10.46;69.37
78411;BME280;67706;51.074;-1.796;2023-02-21T13:31:57;101249.81;;;10.42;69.99
78411;BME280;67706;51.074;-1.796;2023-02-21T13:34:26;101245.19;;;10.43;70.53
78411;BME280;67706;51.074;-1.796;2023-02-21T13:36:59;101229.97;;;10.55;69.41